Time,TemperatureF,DewpointF,PressureIn,WindDirection,WindDirectionDegrees,WindSpeedMPH,WindSpeedGustMPH,Humidity,HourlyPrecipIn,Conditions,Clouds,dailyrainin,SoftwareType,DateUTC
2013-02-19 00:01:00,52.3,33.2,29.86,ESE,114,0.0,1.0,48,0.00,,,0.00,Wunderground v.1.15,2013-02-19 07:01:00,
2013-02-19 00:06:00,52.2,33.1,29.86,ESE,114,0.0,1.0,48,0.00,,,0.00,Wunderground v.1.15,2013-02-19 07:06:00,
2013-02-19 00:11:00,51.6,32.5,29.85,ESE,114,0.0,0.0,48,0.00,,,0.00,Wunderground v.1.15,2013-02-19 07:11:00,
2013-02-19 00:16:00,51.2,31.6,29.86,ESE,114,0.0,1.0,47,0.00,,,0.00,Wunderground v.1.15,2013-02-19 07:16:00,
2013-02-19 00:21:00,50.7,31.7,29.86,ESE,114,0.0,0.0,48,0.00,,,0.00,Wunderground v.1.15,2013-02-19 07:21:00,
2013-02-19 00:26:00,50.7,30.7,29.85,ESE,114,0.0,0.0,46,0.00,,,0.00,Wunderground v.1.15,2013-02-19 07:26:00,
2013-02-19 00:31:00,51.4,30.7,29.86,ESE,114,0.0,0.0,45,0.00,,,0.00,Wunderground v.1.15,2013-02-19 07:31:00,
2013-02-19 00:36:00,51.9,30.6,29.85,ESE,115,1.0,1.0,44,0.00,,,0.00,Wunderground v.1.15,2013-02-19 07:36:00,
2013-02-19 00:41:00,51.9,30.6,29.85,ESE,114,2.0,2.0,44,0.00,,,0.00,Wunderground v.1.15,2013-02-19 07:41:00,
2013-02-19 00:46:00,52.3,30.4,29.85,ESE,106,0.0,3.0,43,0.00,,,0.00,Wunderground v.1.15,2013-02-19 07:46:00,
2013-02-19 00:51:00,52.8,29.7,29.85,ESE,108,1.0,2.0,41,0.00,,,0.00,Wunderground v.1.15,2013-02-19 07:51:00,
2013-02-19 00:56:00,52.9,29.8,29.85,SE,131,1.0,2.0,41,0.00,,,0.00,Wunderground v.1.15,2013-02-19 07:56:00,
2013-02-19 01:02:00,52.4,29.4,29.85,WNW,302,3.0,3.0,41,0.00,,,0.00,Wunderground v.1.15,2013-02-19 08:02:00,
2013-02-19 01:07:00,50.0,32.1,29.85,West,281,1.0,3.0,50,0.00,,,0.00,Wunderground v.1.15,2013-02-19 08:07:00,
2013-02-19 01:12:00,48.3,31.5,29.85,WNW,288,0.0,1.0,52,0.00,,,0.00,Wunderground v.1.15,2013-02-19 08:12:00,
2013-02-19 01:17:00,48.1,31.8,29.85,WNW,288,0.0,1.0,53,0.00,,,0.00,Wunderground v.1.15,2013-02-19 08:17:00,
2013-02-19 01:22:00,48.1,32.2,29.85,WSW,255,0.0,0.0,54,0.00,,,0.00,Wunderground v.1.15,2013-02-19 08:22:00,
2013-02-19 01:28:00,48.1,31.3,29.85,WSW,256,0.0,0.0,52,0.00,,,0.00,Wunderground v.1.15,2013-02-19 08:28:00,
2013-02-19 01:33:00,48.1,31.8,29.85,WSW,256,0.0,0.0,53,0.00,,,0.00,Wunderground v.1.15,2013-02-19 08:33:00,
2013-02-19 01:38:00,48.7,30.9,29.85,SE,124,1.0,1.0,50,0.00,,,0.00,Wunderground v.1.15,2013-02-19 08:38:00,
2013-02-19 01:44:00,49.6,30.2,29.85,ESE,120,0.0,0.0,47,0.00,,,0.00,Wunderground v.1.15,2013-02-19 08:44:00,
2013-02-19 01:49:00,50.0,30.0,29.85,East,97,1.0,1.0,46,0.00,,,0.00,Wunderground v.1.15,2013-02-19 08:49:00,
2013-02-19 01:55:00,50.9,29.7,29.84,ESE,121,0.0,1.0,44,0.00,,,0.00,Wunderground v.1.15,2013-02-19 08:55:00,
2013-02-19 02:00:00,51.5,29.1,29.84,ESE,109,0.0,1.0,42,0.00,,,0.00,Wunderground v.1.15,2013-02-19 09:00:00,
2013-02-19 02:05:00,51.7,29.3,29.84,ESE,114,0.0,1.0,42,0.00,,,0.00,Wunderground v.1.15,2013-02-19 09:05:00,
2013-02-19 02:10:00,51.8,29.4,29.84,ESE,111,1.0,1.0,42,0.00,,,0.00,Wunderground v.1.15,2013-02-19 09:10:00,
2013-02-19 02:15:00,52.3,28.7,29.84,ESE,107,4.0,4.0,40,0.00,,,0.00,Wunderground v.1.15,2013-02-19 09:15:00,
2013-02-19 02:20:00,53.2,28.9,29.84,ESE,107,3.0,3.0,39,0.00,,,0.00,Wunderground v.1.15,2013-02-19 09:20:00,
2013-02-19 02:26:00,53.7,28.7,29.83,SE,125,3.0,3.0,38,0.00,,,0.00,Wunderground v.1.15,2013-02-19 09:26:00,
2013-02-19 02:31:00,54.0,28.3,29.83,ESE,118,3.0,3.0,37,0.00,,,0.00,Wunderground v.1.15,2013-02-19 09:31:00,
2013-02-19 02:36:00,54.2,28.5,29.83,ESE,105,3.0,4.0,37,0.00,,,0.00,Wunderground v.1.15,2013-02-19 09:36:00,
2013-02-19 02:41:00,54.5,28.7,29.83,SE,126,2.0,3.0,37,0.00,,,0.00,Wunderground v.1.15,2013-02-19 09:41:00,
2013-02-19 02:46:00,54.6,28.8,29.83,SE,134,4.0,4.0,37,0.00,,,0.00,Wunderground v.1.15,2013-02-19 09:46:00,
2013-02-19 02:51:00,54.9,28.4,29.82,SE,131,3.0,3.0,36,0.00,,,0.00,Wunderground v.1.15,2013-02-19 09:51:00,
2013-02-19 03:04:00,54.9,28.4,29.82,ESE,114,2.0,3.0,36,0.00,,,0.00,Wunderground v.1.15,2013-02-19 10:04:00,
2013-02-19 03:09:00,54.7,28.9,29.82,ESE,120,1.0,3.0,37,0.00,,,0.00,Wunderground v.1.15,2013-02-19 10:09:00,
2013-02-19 03:14:00,54.5,28.7,29.82,ESE,110,3.0,3.0,37,0.00,,,0.00,Wunderground v.1.15,2013-02-19 10:14:00,
2013-02-19 03:19:00,54.4,28.6,29.82,SE,131,1.0,4.0,37,0.00,,,0.00,Wunderground v.1.15,2013-02-19 10:19:00,
2013-02-19 03:24:00,54.2,28.5,29.81,ESE,122,0.0,2.0,37,0.00,,,0.00,Wunderground v.1.15,2013-02-19 10:24:00,
2013-02-19 03:29:00,53.8,28.8,29.81,ESE,121,0.0,2.0,38,0.00,,,0.00,Wunderground v.1.15,2013-02-19 10:29:00,
2013-02-19 03:35:00,52.8,29.7,29.82,North,5,5.0,5.0,41,0.00,,,0.00,Wunderground v.1.15,2013-02-19 10:35:00,
2013-02-19 03:40:00,48.5,29.2,29.82,North,8,6.0,6.0,47,0.00,,,0.00,Wunderground v.1.15,2013-02-19 10:40:00,
2013-02-19 03:45:00,45.9,29.7,29.82,North,8,3.0,6.0,53,0.00,,,0.00,Wunderground v.1.15,2013-02-19 10:45:00,
2013-02-19 03:50:00,44.8,29.6,29.82,NNE,32,0.0,2.0,55,0.00,,,0.00,Wunderground v.1.15,2013-02-19 10:50:00,
2013-02-19 04:03:00,44.8,30.9,29.81,NNW,335,1.0,2.0,58,0.00,,,0.00,Wunderground v.1.15,2013-02-19 11:03:00,
2013-02-19 04:08:00,44.2,30.8,29.81,NNW,340,0.0,2.0,59,0.00,,,0.00,Wunderground v.1.15,2013-02-19 11:08:00,
2013-02-19 04:13:00,43.8,30.4,29.81,NNW,339,0.0,1.0,59,0.00,,,0.00,Wunderground v.1.15,2013-02-19 11:13:00,
2013-02-19 04:18:00,43.6,30.6,29.81,NNW,339,0.0,1.0,60,0.00,,,0.00,Wunderground v.1.15,2013-02-19 11:18:00,
2013-02-19 04:23:00,43.4,30.4,29.80,NNW,339,0.0,0.0,60,0.00,,,0.00,Wunderground v.1.15,2013-02-19 11:23:00,
2013-02-19 04:28:00,43.2,30.6,29.80,NNW,339,0.0,0.0,61,0.00,,,0.00,Wunderground v.1.15,2013-02-19 11:28:00,
2013-02-19 04:33:00,43.2,30.6,29.80,NNW,339,0.0,0.0,61,0.00,,,0.00,Wunderground v.1.15,2013-02-19 11:33:00,
2013-02-19 04:39:00,43.2,30.6,29.80,NNW,339,0.0,0.0,61,0.00,,,0.00,Wunderground v.1.15,2013-02-19 11:39:00,
2013-02-19 04:44:00,43.1,30.6,29.80,NNW,339,0.0,0.0,61,0.00,,,0.00,Wunderground v.1.15,2013-02-19 11:44:00,
2013-02-19 04:49:00,42.9,30.8,29.80,NNW,339,0.0,0.0,62,0.00,,,0.00,Wunderground v.1.15,2013-02-19 11:49:00,
2013-02-19 04:54:00,42.7,30.6,29.80,NNW,339,0.0,0.0,62,0.00,,,0.00,Wunderground v.1.15,2013-02-19 11:54:00,
2013-02-19 04:59:00,42.7,31.0,29.80,NNW,338,0.0,0.0,63,0.00,,,0.00,Wunderground v.1.15,2013-02-19 11:59:00,
2013-02-19 05:04:00,42.7,31.0,29.80,NNW,339,0.0,0.0,63,0.00,,,0.00,Wunderground v.1.15,2013-02-19 12:04:00,
2013-02-19 05:09:00,42.8,31.1,29.80,NNW,338,0.0,0.0,63,0.00,,,0.00,Wunderground v.1.15,2013-02-19 12:09:00,
2013-02-19 05:14:00,42.9,31.2,29.80,NNW,339,0.0,1.0,63,0.00,,,0.00,Wunderground v.1.15,2013-02-19 12:14:00,
2013-02-19 05:19:00,42.9,31.2,29.80,NNW,339,0.0,1.0,63,0.00,,,0.00,Wunderground v.1.15,2013-02-19 12:19:00,
2013-02-19 05:24:00,43.0,31.3,29.80,NNW,339,0.0,0.0,63,0.00,,,0.00,Wunderground v.1.15,2013-02-19 12:24:00,
2013-02-19 05:29:00,43.2,31.4,29.80,NNE,32,0.0,1.0,63,0.00,,,0.00,Wunderground v.1.15,2013-02-19 12:29:00,
2013-02-19 05:34:00,43.1,31.4,29.80,NNE,33,0.0,0.0,63,0.00,,,0.00,Wunderground v.1.15,2013-02-19 12:34:00,
2013-02-19 05:39:00,42.7,31.0,29.80,NNE,33,0.0,0.0,63,0.00,,,0.00,Wunderground v.1.15,2013-02-19 12:39:00,
2013-02-19 05:44:00,42.4,31.1,29.80,NNE,32,0.0,0.0,64,0.00,,,0.00,Wunderground v.1.15,2013-02-19 12:44:00,
2013-02-19 05:49:00,42.1,30.8,29.80,NNE,32,0.0,0.0,64,0.00,,,0.00,Wunderground v.1.15,2013-02-19 12:49:00,
2013-02-19 05:54:00,41.3,30.0,29.80,NNW,328,1.0,2.0,64,0.00,,,0.00,Wunderground v.1.15,2013-02-19 12:54:00,
2013-02-19 05:59:00,40.0,30.6,29.81,WNW,292,1.0,2.0,69,0.00,,,0.00,Wunderground v.1.15,2013-02-19 12:59:00,
2013-02-19 06:04:00,39.7,30.0,29.81,NNW,343,0.0,1.0,68,0.00,,,0.00,Wunderground v.1.15,2013-02-19 13:04:00,
2013-02-19 06:09:00,39.7,30.0,29.81,NW,320,0.0,1.0,68,0.00,,,0.00,Wunderground v.1.15,2013-02-19 13:09:00,
2013-02-19 06:14:00,39.8,30.1,29.81,NW,318,0.0,0.0,68,0.00,,,0.00,Wunderground v.1.15,2013-02-19 13:14:00,
2013-02-19 06:19:00,39.7,30.0,29.81,NW,315,0.0,0.0,68,0.00,,,0.00,Wunderground v.1.15,2013-02-19 13:19:00,
2013-02-19 06:24:00,39.6,29.9,29.81,WNW,287,0.0,1.0,68,0.00,,,0.00,Wunderground v.1.15,2013-02-19 13:24:00,
2013-02-19 06:29:00,39.6,30.3,29.81,WNW,287,0.0,1.0,69,0.00,,,0.00,Wunderground v.1.15,2013-02-19 13:29:00,
2013-02-19 06:34:00,39.9,30.5,29.81,ESE,119,1.0,1.0,69,0.00,,,0.00,Wunderground v.1.15,2013-02-19 13:34:00,
2013-02-19 06:39:00,40.4,31.0,29.80,East,85,1.0,1.0,69,0.00,,,0.00,Wunderground v.1.15,2013-02-19 13:39:00,
2013-02-19 06:44:00,41.2,30.7,29.80,ENE,73,1.0,2.0,66,0.00,,,0.00,Wunderground v.1.15,2013-02-19 13:44:00,
2013-02-19 06:49:00,42.0,30.7,29.80,East,98,1.0,3.0,64,0.00,,,0.00,Wunderground v.1.15,2013-02-19 13:49:00,
2013-02-19 06:54:00,42.4,30.7,29.80,SE,124,1.0,1.0,63,0.00,,,0.00,Wunderground v.1.15,2013-02-19 13:54:00,
2013-02-19 06:59:00,42.2,30.9,29.80,ESE,118,2.0,2.0,64,0.00,,,0.00,Wunderground v.1.15,2013-02-19 13:59:00,
2013-02-19 07:04:00,42.1,30.8,29.80,ESE,118,0.0,2.0,64,0.00,,,0.00,Wunderground v.1.15,2013-02-19 14:04:00,
2013-02-19 07:09:00,42.1,31.2,29.80,ESE,110,1.0,2.0,65,0.00,,,0.00,Wunderground v.1.15,2013-02-19 14:09:00,
2013-02-19 07:14:00,42.5,31.2,29.80,SE,124,1.0,4.0,64,0.00,,,0.00,Wunderground v.1.15,2013-02-19 14:14:00,
2013-02-19 07:20:00,42.5,31.2,29.81,ESE,117,3.0,4.0,64,0.00,,,0.00,Wunderground v.1.15,2013-02-19 14:20:00,
2013-02-19 07:25:00,42.7,31.4,29.81,SE,128,1.0,4.0,64,0.00,,,0.00,Wunderground v.1.15,2013-02-19 14:25:00,
2013-02-19 07:30:00,42.9,31.2,29.81,SE,128,1.0,4.0,63,0.00,,,0.00,Wunderground v.1.15,2013-02-19 14:30:00,
2013-02-19 07:35:00,43.1,31.4,29.81,ESE,102,0.0,2.0,63,0.00,,,0.00,Wunderground v.1.15,2013-02-19 14:35:00,
2013-02-19 07:40:00,43.1,31.4,29.81,ESE,102,0.0,0.0,63,0.00,,,0.00,Wunderground v.1.15,2013-02-19 14:40:00,
2013-02-19 07:45:00,43.5,31.3,29.81,East,87,0.0,1.0,62,0.00,,,0.00,Wunderground v.1.15,2013-02-19 14:45:00,
2013-02-19 07:50:00,44.0,31.4,29.81,East,91,1.0,1.0,61,0.00,,,0.00,Wunderground v.1.15,2013-02-19 14:50:00,
2013-02-19 07:55:00,45.3,31.8,29.82,SE,125,1.0,1.0,59,0.00,,,0.00,Wunderground v.1.15,2013-02-19 14:55:00,
2013-02-19 08:00:00,46.3,31.9,29.82,SE,124,1.0,1.0,57,0.00,,,0.00,Wunderground v.1.15,2013-02-19 15:00:00,
2013-02-19 08:05:00,47.2,32.3,29.82,ESE,113,0.0,2.0,56,0.00,,,0.00,Wunderground v.1.15,2013-02-19 15:05:00,
2013-02-19 08:10:00,48.4,32.5,29.82,East,90,0.0,0.0,54,0.00,,,0.00,Wunderground v.1.15,2013-02-19 15:10:00,
2013-02-19 08:15:00,49.3,32.9,29.82,East,91,0.0,0.0,53,0.00,,,0.00,Wunderground v.1.15,2013-02-19 15:15:00,
2013-02-19 08:20:00,49.7,33.7,29.82,East,91,0.0,0.0,54,0.00,,,0.00,Wunderground v.1.15,2013-02-19 15:20:00,
2013-02-19 08:25:00,51.0,33.5,29.83,East,91,0.0,0.0,51,0.00,,,0.00,Wunderground v.1.15,2013-02-19 15:25:00,
2013-02-19 08:30:00,51.6,33.6,29.83,ESE,111,0.0,1.0,50,0.00,,,0.00,Wunderground v.1.15,2013-02-19 15:30:00,
2013-02-19 08:35:00,52.2,33.6,29.82,SE,133,0.0,1.0,49,0.00,,,0.00,Wunderground v.1.15,2013-02-19 15:35:00,
2013-02-19 08:40:00,52.7,34.1,29.82,SE,133,0.0,0.0,49,0.00,,,0.00,Wunderground v.1.15,2013-02-19 15:40:00,
2013-02-19 08:45:00,53.5,33.7,29.83,WSW,257,0.0,1.0,47,0.00,,,0.00,Wunderground v.1.15,2013-02-19 15:45:00,
2013-02-19 08:50:00,53.5,34.8,29.82,South,172,0.0,2.0,49,0.00,,,0.00,Wunderground v.1.15,2013-02-19 15:50:00,
2013-02-19 08:55:00,55.0,34.6,29.82,SW,218,2.0,2.0,46,0.00,,,0.00,Wunderground v.1.15,2013-02-19 15:55:00,
2013-02-19 09:00:00,56.5,34.3,29.82,SSW,203,2.0,5.0,43,0.00,,,0.00,Wunderground v.1.15,2013-02-19 16:00:00,
2013-02-19 09:05:00,57.7,33.5,29.83,South,181,8.0,8.0,40,0.00,,,0.00,Wunderground v.1.15,2013-02-19 16:05:00,
2013-02-19 09:10:00,58.5,33.6,29.82,SSW,211,4.0,4.0,39,0.00,,,0.00,Wunderground v.1.15,2013-02-19 16:10:00,
2013-02-19 09:15:00,59.0,33.4,29.83,SW,214,3.0,10.0,38,0.00,,,0.00,Wunderground v.1.15,2013-02-19 16:15:00,
2013-02-19 09:20:00,59.3,33.7,29.83,SE,137,5.0,8.0,38,0.00,,,0.00,Wunderground v.1.15,2013-02-19 16:20:00,
2013-02-19 09:25:00,59.7,33.4,29.83,South,181,3.0,10.0,37,0.00,,,0.00,Wunderground v.1.15,2013-02-19 16:25:00,
2013-02-19 09:30:00,60.0,33.6,29.83,SSW,204,4.0,7.0,37,0.00,,,0.00,Wunderground v.1.15,2013-02-19 16:30:00,
2013-02-19 09:35:00,60.3,33.2,29.83,SW,224,5.0,7.0,36,0.00,,,0.00,Wunderground v.1.15,2013-02-19 16:35:00,
2013-02-19 09:40:00,60.5,32.7,29.82,SSE,163,5.0,9.0,35,0.00,,,0.00,Wunderground v.1.15,2013-02-19 16:40:00,
2013-02-19 09:45:00,60.8,33.0,29.83,SSE,155,7.0,10.0,35,0.00,,,0.00,Wunderground v.1.15,2013-02-19 16:45:00,
2013-02-19 09:50:00,61.0,33.8,29.83,South,174,5.0,7.0,36,0.00,,,0.00,Wunderground v.1.15,2013-02-19 16:50:00,
2013-02-19 09:55:00,61.1,33.9,29.83,SW,231,6.0,13.0,36,0.00,,,0.00,Wunderground v.1.15,2013-02-19 16:55:00,
2013-02-19 10:00:00,61.1,34.6,29.82,South,174,5.0,9.0,37,0.00,,,0.00,Wunderground v.1.15,2013-02-19 17:00:00,
2013-02-19 10:06:00,60.7,34.9,29.82,West,273,0.0,16.0,38,0.00,,,0.00,Wunderground v.1.15,2013-02-19 17:06:00,
2013-02-19 10:11:00,60.6,34.8,29.82,SSE,167,3.0,7.0,38,0.00,,,0.00,Wunderground v.1.15,2013-02-19 17:11:00,
2013-02-19 10:16:00,60.9,34.4,29.81,WSW,243,1.0,10.0,37,0.00,,,0.00,Wunderground v.1.15,2013-02-19 17:16:00,
2013-02-19 10:21:00,60.9,34.4,29.81,SSE,160,5.0,6.0,37,0.00,,,0.00,Wunderground v.1.15,2013-02-19 17:21:00,
2013-02-19 10:26:00,61.0,34.5,29.81,South,174,5.0,12.0,37,0.00,,,0.00,Wunderground v.1.15,2013-02-19 17:26:00,
2013-02-19 10:31:00,61.0,35.2,29.81,WSW,257,8.0,9.0,38,0.00,,,0.00,Wunderground v.1.15,2013-02-19 17:31:00,
2013-02-19 10:36:00,61.0,35.2,29.81,West,269,2.0,14.0,38,0.00,,,0.00,Wunderground v.1.15,2013-02-19 17:36:00,
2013-02-19 10:41:00,61.3,35.5,29.81,SSW,208,1.0,10.0,38,0.00,,,0.00,Wunderground v.1.15,2013-02-19 17:41:00,
2013-02-19 10:46:00,61.6,35.1,29.81,SW,231,4.0,10.0,37,0.00,,,0.00,Wunderground v.1.15,2013-02-19 17:46:00,
2013-02-19 10:51:00,62.0,34.0,29.81,SSE,159,3.0,8.0,35,0.00,,,0.00,Wunderground v.1.15,2013-02-19 17:51:00,
2013-02-19 10:56:00,62.2,34.9,29.81,WNW,284,8.0,10.0,36,0.00,,,0.00,Wunderground v.1.15,2013-02-19 17:56:00,
2013-02-19 11:01:00,61.9,33.9,29.81,WSW,245,12.0,14.0,35,0.00,,,0.00,Wunderground v.1.15,2013-02-19 18:01:00,
2013-02-19 11:06:00,61.8,33.8,29.81,WNW,283,1.0,14.0,35,0.00,,,0.00,Wunderground v.1.15,2013-02-19 18:06:00,
2013-02-19 11:11:00,62.1,33.4,29.81,WSW,238,9.0,18.0,34,0.00,,,0.00,Wunderground v.1.15,2013-02-19 18:11:00,
2013-02-19 11:16:00,62.1,32.6,29.81,WSW,239,5.0,18.0,33,0.00,,,0.00,Wunderground v.1.15,2013-02-19 18:16:00,
2013-02-19 11:21:00,62.5,33.7,29.81,South,181,2.0,7.0,34,0.00,,,0.00,Wunderground v.1.15,2013-02-19 18:21:00,
2013-02-19 11:26:00,62.9,34.1,29.81,WSW,243,8.0,15.0,34,0.00,,,0.00,Wunderground v.1.15,2013-02-19 18:26:00,
2013-02-19 11:31:00,62.8,33.2,29.81,SW,226,4.0,8.0,33,0.00,,,0.00,Wunderground v.1.15,2013-02-19 18:31:00,
2013-02-19 11:36:00,63.0,33.4,29.81,SW,217,5.0,14.0,33,0.00,,,0.00,Wunderground v.1.15,2013-02-19 18:36:00,
2013-02-19 11:41:00,63.5,33.1,29.80,ESE,118,4.0,9.0,32,0.00,,,0.00,Wunderground v.1.15,2013-02-19 18:41:00,
2013-02-19 11:46:00,63.1,31.9,29.80,West,266,7.0,14.0,31,0.00,,,0.00,Wunderground v.1.15,2013-02-19 18:46:00,
2013-02-19 11:51:00,62.9,32.6,29.80,West,266,6.0,13.0,32,0.00,,,0.00,Wunderground v.1.15,2013-02-19 18:51:00,
2013-02-19 11:56:00,63.0,33.4,29.80,SW,236,0.0,13.0,33,0.00,,,0.00,Wunderground v.1.15,2013-02-19 18:56:00,
2013-02-19 12:01:00,63.4,33.0,29.80,WSW,252,9.0,13.0,32,0.00,,,0.00,Wunderground v.1.15,2013-02-19 19:01:00,
2013-02-19 12:06:00,62.8,32.5,29.80,WSW,239,4.0,14.0,32,0.00,,,0.00,Wunderground v.1.15,2013-02-19 19:06:00,
2013-02-19 12:11:00,63.0,33.4,29.80,WSW,250,8.0,8.0,33,0.00,,,0.00,Wunderground v.1.15,2013-02-19 19:11:00,
2013-02-19 12:16:00,63.2,33.6,29.80,West,266,8.0,13.0,33,0.00,,,0.00,Wunderground v.1.15,2013-02-19 19:16:00,
2013-02-19 12:21:00,62.9,33.3,29.80,WSW,256,8.0,14.0,33,0.00,,,0.00,Wunderground v.1.15,2013-02-19 19:21:00,
2013-02-19 12:26:00,62.8,33.2,29.80,WSW,240,3.0,14.0,33,0.00,,,0.00,Wunderground v.1.15,2013-02-19 19:26:00,
2013-02-19 12:31:00,63.5,33.9,29.79,West,263,6.0,15.0,33,0.00,,,0.00,Wunderground v.1.15,2013-02-19 19:31:00,
2013-02-19 12:36:00,63.1,33.5,29.79,WSW,257,8.0,15.0,33,0.00,,,0.00,Wunderground v.1.15,2013-02-19 19:36:00,
2013-02-19 12:41:00,63.9,33.4,29.78,West,269,8.0,12.0,32,0.00,,,0.00,Wunderground v.1.15,2013-02-19 19:41:00,
2013-02-19 12:46:00,64.0,34.3,29.78,SW,218,2.0,14.0,33,0.00,,,0.00,Wunderground v.1.15,2013-02-19 19:46:00,
2013-02-19 12:51:00,63.5,32.3,29.78,SW,226,8.0,14.0,31,0.00,,,0.00,Wunderground v.1.15,2013-02-19 19:51:00,
2013-02-19 12:56:00,64.0,34.3,29.78,WNW,295,8.0,14.0,33,0.00,,,0.00,Wunderground v.1.15,2013-02-19 19:56:00,
2013-02-19 13:01:00,64.1,32.8,29.77,West,269,10.0,18.0,31,0.00,,,0.00,Wunderground v.1.15,2013-02-19 20:01:00,
2013-02-19 13:06:00,64.8,33.4,29.77,WSW,253,11.0,18.0,31,0.00,,,0.00,Wunderground v.1.15,2013-02-19 20:06:00,
2013-02-19 13:11:00,64.7,33.3,29.77,WSW,243,6.0,14.0,31,0.00,,,0.00,Wunderground v.1.15,2013-02-19 20:11:00,
2013-02-19 13:16:00,64.7,32.5,29.77,SSE,148,5.0,14.0,30,0.00,,,0.00,Wunderground v.1.15,2013-02-19 20:16:00,
2013-02-19 13:21:00,64.8,32.6,29.76,West,266,9.0,18.0,30,0.00,,,0.00,Wunderground v.1.15,2013-02-19 20:21:00,
2013-02-19 13:26:00,65.1,33.7,29.75,WSW,238,9.0,18.0,31,0.00,,,0.00,Wunderground v.1.15,2013-02-19 20:26:00,
2013-02-19 13:31:00,65.5,33.2,29.75,SSW,207,3.0,13.0,30,0.00,,,0.00,Wunderground v.1.15,2013-02-19 20:31:00,
2013-02-19 13:36:00,66.4,34.0,29.75,WNW,287,12.0,13.0,30,0.00,,,0.00,Wunderground v.1.15,2013-02-19 20:36:00,
2013-02-19 13:42:00,65.9,32.7,29.75,West,281,16.0,18.0,29,0.00,,,0.00,Wunderground v.1.15,2013-02-19 20:42:00,
2013-02-19 13:47:00,66.0,33.7,29.75,WSW,238,15.0,18.0,30,0.00,,,0.00,Wunderground v.1.15,2013-02-19 20:47:00,
2013-02-19 13:52:00,65.6,33.3,29.74,West,259,8.0,15.0,30,0.00,,,0.00,Wunderground v.1.15,2013-02-19 20:52:00,
2013-02-19 13:57:00,64.9,33.5,29.74,WSW,248,12.0,17.0,31,0.00,,,0.00,Wunderground v.1.15,2013-02-19 20:57:00,
2013-02-19 14:02:00,65.0,34.4,29.74,SW,225,4.0,16.0,32,0.00,,,0.00,Wunderground v.1.15,2013-02-19 21:02:00,
2013-02-19 14:07:00,65.0,32.8,29.74,SW,233,13.0,18.0,30,0.00,,,0.00,Wunderground v.1.15,2013-02-19 21:07:00,
2013-02-19 14:12:00,64.3,31.3,29.74,West,273,11.0,19.0,29,0.00,,,0.00,Wunderground v.1.15,2013-02-19 21:12:00,
2013-02-19 14:17:00,64.1,32.0,29.73,SW,233,13.0,19.0,30,0.00,,,0.00,Wunderground v.1.15,2013-02-19 21:17:00,
2013-02-19 14:22:00,64.5,33.2,29.73,WSW,245,12.0,14.0,31,0.00,,,0.00,Wunderground v.1.15,2013-02-19 21:22:00,
2013-02-19 14:27:00,64.4,32.3,29.73,WNW,301,7.0,17.0,30,0.00,,,0.00,Wunderground v.1.15,2013-02-19 21:27:00,
2013-02-19 14:32:00,64.4,32.3,29.72,SW,219,6.0,13.0,30,0.00,,,0.00,Wunderground v.1.15,2013-02-19 21:32:00,
2013-02-19 14:37:00,65.1,32.9,29.72,WSW,240,10.0,23.0,30,0.00,,,0.00,Wunderground v.1.15,2013-02-19 21:37:00,
2013-02-19 14:42:00,64.2,32.1,29.72,West,262,13.0,17.0,30,0.00,,,0.00,Wunderground v.1.15,2013-02-19 21:42:00,
2013-02-19 14:47:00,63.7,32.5,29.72,West,259,8.0,17.0,31,0.00,,,0.00,Wunderground v.1.15,2013-02-19 21:47:00,
2013-02-19 14:52:00,63.9,33.4,29.71,SSW,198,9.0,14.0,32,0.00,,,0.00,Wunderground v.1.15,2013-02-19 21:52:00,
2013-02-19 14:57:00,64.4,33.1,29.71,West,266,9.0,16.0,31,0.00,,,0.00,Wunderground v.1.15,2013-02-19 21:57:00,
2013-02-19 15:02:00,65.3,33.0,29.71,SW,236,8.0,15.0,30,0.00,,,0.00,Wunderground v.1.15,2013-02-19 22:02:00,
2013-02-19 15:07:00,65.4,33.1,29.70,WSW,240,16.0,18.0,30,0.00,,,0.00,Wunderground v.1.15,2013-02-19 22:07:00,
2013-02-19 15:12:00,65.2,32.1,29.70,SSE,162,5.0,12.0,29,0.00,,,0.00,Wunderground v.1.15,2013-02-19 22:12:00,
2013-02-19 15:17:00,65.1,32.0,29.70,WSW,245,8.0,18.0,29,0.00,,,0.00,Wunderground v.1.15,2013-02-19 22:17:00,
2013-02-19 15:22:00,65.5,31.5,29.70,WSW,242,15.0,19.0,28,0.00,,,0.00,Wunderground v.1.15,2013-02-19 22:22:00,
2013-02-19 15:27:00,64.8,30.9,29.70,SW,235,13.0,21.0,28,0.00,,,0.00,Wunderground v.1.15,2013-02-19 22:27:00,
2013-02-19 15:32:00,64.4,31.4,29.70,West,259,14.0,17.0,29,0.00,,,0.00,Wunderground v.1.15,2013-02-19 22:32:00,
2013-02-19 15:37:00,64.7,30.8,29.69,WSW,238,13.0,20.0,28,0.00,,,0.00,Wunderground v.1.15,2013-02-19 22:37:00,
2013-02-19 15:42:00,65.4,32.3,29.69,West,277,10.0,18.0,29,0.00,,,0.00,Wunderground v.1.15,2013-02-19 22:42:00,
2013-02-19 15:47:00,65.3,31.3,29.69,West,259,15.0,18.0,28,0.00,,,0.00,Wunderground v.1.15,2013-02-19 22:47:00,
2013-02-19 15:52:00,64.5,31.5,29.69,West,264,10.0,18.0,29,0.00,,,0.00,Wunderground v.1.15,2013-02-19 22:52:00,
2013-02-19 15:57:00,64.8,32.6,29.69,WSW,250,11.0,18.0,30,0.00,,,0.00,Wunderground v.1.15,2013-02-19 22:57:00,
2013-02-19 16:02:00,64.6,32.4,29.69,WSW,255,11.0,18.0,30,0.00,,,0.00,Wunderground v.1.15,2013-02-19 23:02:00,
2013-02-19 16:07:00,64.8,33.4,29.69,South,170,3.0,18.0,31,0.00,,,0.00,Wunderground v.1.15,2013-02-19 23:07:00,
2013-02-19 16:12:00,65.1,34.5,29.69,West,262,10.0,15.0,32,0.00,,,0.00,Wunderground v.1.15,2013-02-19 23:12:00,
2013-02-19 16:17:00,64.9,33.5,29.69,WSW,245,11.0,20.0,31,0.00,,,0.00,Wunderground v.1.15,2013-02-19 23:17:00,
2013-02-19 16:22:00,64.3,33.8,29.69,WSW,252,17.0,18.0,32,0.00,,,0.00,Wunderground v.1.15,2013-02-19 23:22:00,
2013-02-19 16:27:00,63.6,33.9,29.69,West,269,9.0,20.0,33,0.00,,,0.00,Wunderground v.1.15,2013-02-19 23:27:00,
2013-02-19 16:32:00,63.3,33.7,29.69,WSW,243,12.0,20.0,33,0.00,,,0.00,Wunderground v.1.15,2013-02-19 23:32:00,
2013-02-19 16:37:00,63.2,33.6,29.69,East,81,8.0,20.0,33,0.00,,,0.00,Wunderground v.1.15,2013-02-19 23:37:00,
2013-02-19 16:42:00,63.2,33.6,29.69,South,184,4.0,16.0,33,0.00,,,0.00,Wunderground v.1.15,2013-02-19 23:42:00,
2013-02-19 16:47:00,63.0,34.2,29.69,SW,232,6.0,16.0,34,0.00,,,0.00,Wunderground v.1.15,2013-02-19 23:47:00,
2013-02-19 16:52:00,62.6,34.5,29.69,SW,219,7.0,15.0,35,0.00,,,0.00,Wunderground v.1.15,2013-02-19 23:52:00,
2013-02-19 16:57:00,62.1,34.8,29.69,SE,135,5.0,19.0,36,0.00,,,0.00,Wunderground v.1.15,2013-02-19 23:57:00,
2013-02-19 17:02:00,61.8,35.9,29.69,West,259,8.0,14.0,38,0.00,,,0.00,Wunderground v.1.15,2013-02-20 00:02:00,
2013-02-19 17:07:00,61.5,36.3,29.68,West,262,11.0,18.0,39,0.00,,,0.00,Wunderground v.1.15,2013-02-20 00:07:00,
2013-02-19 17:12:00,61.2,36.7,29.69,WSW,238,5.0,15.0,40,0.00,,,0.00,Wunderground v.1.15,2013-02-20 00:12:00,
2013-02-19 17:17:00,61.0,36.5,29.69,SW,222,11.0,16.0,40,0.00,,,0.00,Wunderground v.1.15,2013-02-20 00:17:00,
2013-02-19 17:22:00,60.7,36.2,29.69,WSW,249,10.0,14.0,40,0.00,,,0.00,Wunderground v.1.15,2013-02-20 00:22:00,
2013-02-19 17:27:00,60.4,36.6,29.69,SW,232,10.0,18.0,41,0.00,,,0.00,Wunderground v.1.15,2013-02-20 00:27:00,
2013-02-19 17:33:00,60.1,36.3,29.69,WSW,243,10.0,13.0,41,0.00,,,0.00,Wunderground v.1.15,2013-02-20 00:33:00,
2013-02-19 17:38:00,59.9,36.7,29.69,ESE,107,8.0,15.0,42,0.00,,,0.00,Wunderground v.1.15,2013-02-20 00:38:00,
2013-02-19 17:43:00,59.8,36.6,29.68,SSW,203,2.0,17.0,42,0.00,,,0.00,Wunderground v.1.15,2013-02-20 00:43:00,
2013-02-19 17:48:00,59.7,35.9,29.68,SW,216,5.0,17.0,41,0.00,,,0.00,Wunderground v.1.15,2013-02-20 00:48:00,
2013-02-19 17:53:00,59.5,36.4,29.68,West,278,5.0,15.0,42,0.00,,,0.00,Wunderground v.1.15,2013-02-20 00:53:00,
2013-02-19 17:58:00,59.3,36.2,29.68,SE,139,2.0,16.0,42,0.00,,,0.00,Wunderground v.1.15,2013-02-20 00:58:00,
2013-02-19 18:03:00,59.1,36.0,29.69,ESE,122,3.0,11.0,42,0.00,,,0.00,Wunderground v.1.15,2013-02-20 01:03:00,
2013-02-19 18:08:00,59.0,35.9,29.69,WSW,240,11.0,14.0,42,0.00,,,0.00,Wunderground v.1.15,2013-02-20 01:08:00,
2013-02-19 18:13:00,58.9,35.8,29.68,SSW,202,2.0,15.0,42,0.00,,,0.00,Wunderground v.1.15,2013-02-20 01:13:00,
2013-02-19 18:18:00,58.7,36.2,29.69,SSW,202,4.0,15.0,43,0.00,,,0.00,Wunderground v.1.15,2013-02-20 01:18:00,
2013-02-19 18:23:00,58.5,36.6,29.69,South,170,2.0,9.0,44,0.00,,,0.00,Wunderground v.1.15,2013-02-20 01:23:00,
2013-02-19 18:28:00,58.4,36.0,29.69,SSW,194,8.0,9.0,43,0.00,,,0.00,Wunderground v.1.15,2013-02-20 01:28:00,
2013-02-19 18:33:00,58.3,35.9,29.69,SSW,210,3.0,7.0,43,0.00,,,0.00,Wunderground v.1.15,2013-02-20 01:33:00,
2013-02-19 18:38:00,58.1,36.3,29.69,West,276,2.0,8.0,44,0.00,,,0.00,Wunderground v.1.15,2013-02-20 01:38:00,
2013-02-19 18:43:00,58.0,35.0,29.69,SSE,165,3.0,11.0,42,0.00,,,0.00,Wunderground v.1.15,2013-02-20 01:43:00,
2013-02-19 18:48:00,58.2,34.6,29.69,South,176,10.0,11.0,41,0.00,,,0.00,Wunderground v.1.15,2013-02-20 01:48:00,
2013-02-19 18:53:00,58.1,34.5,29.69,SE,142,6.0,9.0,41,0.00,,,0.00,Wunderground v.1.15,2013-02-20 01:53:00,
2013-02-19 18:58:00,58.1,34.5,29.69,SW,223,12.0,14.0,41,0.00,,,0.00,Wunderground v.1.15,2013-02-20 01:58:00,
2013-02-19 19:03:00,58.0,35.0,29.69,ESE,114,2.0,12.0,42,0.00,,,0.00,Wunderground v.1.15,2013-02-20 02:03:00,
2013-02-19 19:08:00,58.0,35.0,29.69,South,170,3.0,12.0,42,0.00,,,0.00,Wunderground v.1.15,2013-02-20 02:08:00,
2013-02-19 19:13:00,58.0,35.0,29.69,SE,126,4.0,12.0,42,0.00,,,0.00,Wunderground v.1.15,2013-02-20 02:13:00,
2013-02-19 19:18:00,58.0,35.0,29.69,SSE,153,4.0,17.0,42,0.00,,,0.00,Wunderground v.1.15,2013-02-20 02:18:00,
2013-02-19 19:23:00,58.0,35.0,29.69,SE,136,8.0,10.0,42,0.00,,,0.00,Wunderground v.1.15,2013-02-20 02:23:00,
2013-02-19 19:28:00,57.9,35.5,29.69,WSW,239,5.0,13.0,43,0.00,,,0.00,Wunderground v.1.15,2013-02-20 02:28:00,
2013-02-19 19:33:00,57.8,35.4,29.69,SSW,202,6.0,13.0,43,0.00,,,0.00,Wunderground v.1.15,2013-02-20 02:33:00,
2013-02-19 19:39:00,57.7,35.3,29.69,ESE,103,2.0,13.0,43,0.00,,,0.00,Wunderground v.1.15,2013-02-20 02:39:00,
2013-02-19 19:43:00,57.6,35.8,29.69,South,173,6.0,12.0,44,0.00,,,0.00,Wunderground v.1.15,2013-02-20 02:43:00,
2013-02-19 19:49:00,57.4,35.6,29.70,South,181,8.0,12.0,44,0.00,,,0.00,Wunderground v.1.15,2013-02-20 02:49:00,
2013-02-19 19:54:00,57.4,35.6,29.70,WNW,292,6.0,10.0,44,0.00,,,0.00,Wunderground v.1.15,2013-02-20 02:54:00,
2013-02-19 19:59:00,57.3,35.6,29.70,South,181,7.0,11.0,44,0.00,,,0.00,Wunderground v.1.15,2013-02-20 02:59:00,
2013-02-19 20:03:00,57.2,35.5,29.70,WSW,256,3.0,8.0,44,0.00,,,0.00,Wunderground v.1.15,2013-02-20 03:03:00,
2013-02-19 20:08:00,57.1,35.4,29.70,WSW,256,2.0,9.0,44,0.00,,,0.00,Wunderground v.1.15,2013-02-20 03:08:00,
2013-02-19 20:13:00,57.1,35.4,29.69,WSW,251,3.0,7.0,44,0.00,,,0.00,Wunderground v.1.15,2013-02-20 03:13:00,
2013-02-19 20:18:00,56.9,35.8,29.69,SSW,206,2.0,9.0,45,0.00,,,0.00,Wunderground v.1.15,2013-02-20 03:18:00,
2013-02-19 20:24:00,56.6,36.0,29.69,SW,225,1.0,9.0,46,0.00,,,0.00,Wunderground v.1.15,2013-02-20 03:24:00,
2013-02-19 20:29:00,56.3,36.3,29.69,WSW,252,3.0,9.0,47,0.00,,,0.00,Wunderground v.1.15,2013-02-20 03:29:00,
2013-02-19 20:34:00,56.1,36.7,29.69,South,173,5.0,5.0,48,0.00,,,0.00,Wunderground v.1.15,2013-02-20 03:34:00,
2013-02-19 20:39:00,56.0,36.6,29.69,SSW,213,0.0,8.0,48,0.00,,,0.00,Wunderground v.1.15,2013-02-20 03:39:00,
2013-02-19 20:44:00,56.0,36.6,29.69,SW,233,2.0,7.0,48,0.00,,,0.00,Wunderground v.1.15,2013-02-20 03:44:00,
2013-02-19 20:49:00,55.9,36.5,29.68,SSW,204,5.0,8.0,48,0.00,,,0.00,Wunderground v.1.15,2013-02-20 03:49:00,
2013-02-19 20:54:00,55.9,37.0,29.68,SSW,212,5.0,10.0,49,0.00,,,0.00,Wunderground v.1.15,2013-02-20 03:54:00,
2013-02-19 20:59:00,55.9,37.0,29.68,ESE,105,5.0,10.0,49,0.00,,,0.00,Wunderground v.1.15,2013-02-20 03:59:00,
2013-02-19 21:04:00,55.9,37.0,29.68,ESE,103,5.0,8.0,49,0.00,,,0.00,Wunderground v.1.15,2013-02-20 04:04:00,
2013-02-19 21:09:00,55.9,37.0,29.68,SE,124,8.0,9.0,49,0.00,,,0.00,Wunderground v.1.15,2013-02-20 04:09:00,
2013-02-19 21:14:00,55.8,36.9,29.68,SSE,165,2.0,14.0,49,0.00,,,0.00,Wunderground v.1.15,2013-02-20 04:14:00,
2013-02-19 21:19:00,55.6,37.2,29.68,SSW,206,6.0,15.0,50,0.00,,,0.00,Wunderground v.1.15,2013-02-20 04:19:00,
2013-02-19 21:24:00,55.6,36.7,29.68,SW,226,5.0,13.0,49,0.00,,,0.00,Wunderground v.1.15,2013-02-20 04:24:00,
2013-02-19 21:29:00,55.6,36.7,29.68,SSE,166,4.0,16.0,49,0.00,,,0.00,Wunderground v.1.15,2013-02-20 04:29:00,
2013-02-19 21:34:00,55.5,36.6,29.68,South,181,6.0,14.0,49,0.00,,,0.00,Wunderground v.1.15,2013-02-20 04:34:00,
2013-02-19 21:39:00,55.4,37.1,29.68,East,96,6.0,14.0,50,0.00,,,0.00,Wunderground v.1.15,2013-02-20 04:39:00,
2013-02-19 21:44:00,55.3,37.0,29.68,SW,233,7.0,15.0,50,0.00,,,0.00,Wunderground v.1.15,2013-02-20 04:44:00,
2013-02-19 21:49:00,55.1,37.3,29.68,SW,219,9.0,15.0,51,0.00,,,0.00,Wunderground v.1.15,2013-02-20 04:49:00,
2013-02-19 21:54:00,54.9,37.6,29.68,West,267,3.0,13.0,52,0.00,,,0.00,Wunderground v.1.15,2013-02-20 04:54:00,
2013-02-19 21:59:00,54.7,37.4,29.68,WSW,252,8.0,13.0,52,0.00,,,0.00,Wunderground v.1.15,2013-02-20 04:59:00,
2013-02-19 22:00:00,54.7,37.4,29.68,WSW,253,3.0,13.0,52,0.00,,,0.00,Wunderground v.1.15,2013-02-20 05:00:00,
2013-02-19 22:05:00,54.7,37.9,29.68,SW,231,4.0,12.0,53,0.00,,,0.00,Wunderground v.1.15,2013-02-20 05:05:00,
2013-02-19 22:10:00,54.6,38.3,29.68,SW,233,3.0,5.0,54,0.00,,,0.00,Wunderground v.1.15,2013-02-20 05:10:00,
2013-02-19 22:15:00,54.3,38.0,29.68,WSW,249,1.0,7.0,54,0.00,,,0.00,Wunderground v.1.15,2013-02-20 05:15:00,
2013-02-19 22:20:00,54.1,38.3,29.68,SE,142,1.0,5.0,55,0.00,,,0.00,Wunderground v.1.15,2013-02-20 05:20:00,
2013-02-19 22:25:00,54.0,37.7,29.69,SW,215,2.0,12.0,54,0.00,,,0.00,Wunderground v.1.15,2013-02-20 05:25:00,
2013-02-19 22:30:00,54.0,37.7,29.69,WSW,252,8.0,8.0,54,0.00,,,0.00,Wunderground v.1.15,2013-02-20 05:30:00,
2013-02-19 22:35:00,53.9,37.1,29.69,South,188,2.0,12.0,53,0.00,,,0.00,Wunderground v.1.15,2013-02-20 05:35:00,
2013-02-19 22:40:00,53.7,36.5,29.69,SW,221,4.0,8.0,52,0.00,,,0.00,Wunderground v.1.15,2013-02-20 05:40:00,
2013-02-19 22:45:00,53.4,35.7,29.68,South,186,4.0,12.0,51,0.00,,,0.00,Wunderground v.1.15,2013-02-20 05:45:00,
2013-02-19 22:50:00,53.6,34.9,29.68,WSW,239,4.0,10.0,49,0.00,,,0.00,Wunderground v.1.15,2013-02-20 05:50:00,
2013-02-19 22:55:00,53.7,35.0,29.68,SSW,207,4.0,15.0,49,0.00,,,0.00,Wunderground v.1.15,2013-02-20 05:55:00,
2013-02-19 23:00:00,53.8,35.1,29.68,WNW,283,4.0,8.0,49,0.00,,,0.00,Wunderground v.1.15,2013-02-20 06:00:00,
2013-02-19 23:05:00,54.0,34.7,29.68,South,183,3.0,13.0,48,0.00,,,0.00,Wunderground v.1.15,2013-02-20 06:05:00,
2013-02-19 23:10:00,54.0,34.7,29.68,WSW,241,4.0,6.0,48,0.00,,,0.00,Wunderground v.1.15,2013-02-20 06:10:00,
2013-02-19 23:15:00,53.9,34.6,29.68,SE,131,5.0,16.0,48,0.00,,,0.00,Wunderground v.1.15,2013-02-20 06:15:00,
2013-02-19 23:20:00,53.8,34.6,29.68,West,262,6.0,14.0,48,0.00,,,0.00,Wunderground v.1.15,2013-02-20 06:20:00,
2013-02-19 23:25:00,53.7,34.5,29.68,South,181,4.0,17.0,48,0.00,,,0.00,Wunderground v.1.15,2013-02-20 06:25:00,
2013-02-19 23:30:00,53.7,33.9,29.68,WSW,240,4.0,7.0,47,0.00,,,0.00,Wunderground v.1.15,2013-02-20 06:30:00,
2013-02-19 23:35:00,53.7,34.5,29.68,SW,217,2.0,11.0,48,0.00,,,0.00,Wunderground v.1.15,2013-02-20 06:35:00,
2013-02-19 23:41:00,53.5,34.8,29.68,SW,232,3.0,8.0,49,0.00,,,0.00,Wunderground v.1.15,2013-02-20 06:41:00,
2013-02-19 23:46:00,53.4,34.2,29.68,SE,145,5.0,9.0,48,0.00,,,0.00,Wunderground v.1.15,2013-02-20 06:46:00,
2013-02-19 23:51:00,53.2,34.5,29.68,SW,214,4.0,7.0,49,0.00,,,0.00,Wunderground v.1.15,2013-02-20 06:51:00,
2013-02-19 23:56:00,53.1,34.4,29.68,SSW,199,2.0,8.0,49,0.00,,,0.00,Wunderground v.1.15,2013-02-20 06:56:00,